Time;durP1;ratioP1;P1;durP2;ratioP2;P2;SDS_P1;SDS_P2;PMS_P1;PMS_P2;Temp;Humidity;BMP_temperature;BMP_pressure;BME280_temperature;BME280_humidity;BME280_pressure;Samples;Min_cycle;Max_cycle;Signal;HPM_P1;HPM_P2
2023/01/15 00:03:05;;;;;;;0.00;0.00;;;;;;;5.37;96.44;99333.06;9893813;29;20416;-86
2023/01/15 00:08:07;;;;;;;0.08;0.08;;;;;;;5.36;96.29;99336.53;9920546;29;20334;-87
2023/01/15 00:13:12;;;;;;;0.10;0.08;;;;;;;5.37;96.07;99317.47;9908098;29;20139;-84
2023/01/15 00:18:14;;;;;;;0.10;0.10;;;;;;;5.38;96.24;99316.63;9908276;29;20583;-85
2023/01/15 00:28:42;;;;;;;0.10;0.10;;;;;;;5.38;95.35;99331.34;9904889;29;20087;-86
2023/01/15 00:33:44;;;;;;;0.00;0.00;;;;;;;5.36;95.02;99331.31;9909847;29;20083;-86
2023/01/15 00:38:46;;;;;;;0.00;0.00;;;;;;;5.31;94.89;99340.75;9905148;29;20079;-87
2023/01/15 00:43:48;;;;;;;0.10;0.10;;;;;;;5.28;94.86;99340.72;9914736;29;20043;-87
2023/01/15 00:48:52;;;;;;;0.00;0.00;;;;;;;5.23;94.69;99353.63;9897096;29;20086;-86
2023/01/15 00:53:56;;;;;;;0.00;0.00;;;;;;;5.24;94.60;99354.47;9910935;29;20535;-86
2023/01/15 00:58:59;;;;;;;0.20;0.20;;;;;;;5.26;94.48;99355.41;9920142;29;20050;-87
2023/01/15 01:04:02;;;;;;;0.10;0.10;;;;;;;5.28;94.10;99351.97;9918148;29;20066;-84
2023/01/15 01:09:03;;;;;;;0.43;0.30;;;;;;;5.29;93.99;99356.31;9900945;29;20059;-84
2023/01/15 01:14:05;;;;;;;0.10;0.10;;;;;;;5.27;94.01;99357.16;9910018;29;20059;-85
2023/01/15 01:19:14;;;;;;;0.20;0.20;;;;;;;5.29;94.10;99356.31;9918356;29;20051;-84
2023/01/15 01:24:22;;;;;;;0.10;0.10;;;;;;;5.26;93.63;99371.81;9911108;29;20130;-84
2023/01/15 01:29:24;;;;;;;0.22;0.17;;;;;;;5.23;93.79;99360.53;9913400;29;20051;-84
2023/01/15 01:34:25;;;;;;;0.10;0.10;;;;;;;5.24;93.65;99352.78;9903523;29;20067;-85
2023/01/15 01:39:27;;;;;;;0.00;0.00;;;;;;;5.29;93.72;99358.03;9914547;29;20083;-84
2023/01/15 01:44:32;;;;;;;0.28;0.28;;;;;;;5.28;93.76;99361.47;9902172;29;20409;-84
2023/01/15 01:49:36;;;;;;;0.00;0.00;;;;;;;5.29;93.58;99366.69;9905751;29;20078;-84
2023/01/15 01:54:39;;;;;;;0.95;0.65;;;;;;;5.28;93.54;99361.47;9918716;29;20050;-84
2023/01/15 01:59:41;;;;;;;0.10;0.10;;;;;;;5.25;93.45;99354.50;9928673;29;20489;-84
2023/01/15 02:04:46;;;;;;;2.72;0.45;;;;;;;5.27;93.41;99364.94;9901463;29;20151;-83
2023/01/15 02:09:48;;;;;;;0.43;0.40;;;;;;;5.33;93.03;99375.41;9917680;29;20047;-84
2023/01/15 02:15:00;;;;;;;0.00;0.00;;;;;;;5.30;93.12;99364.97;9911503;29;20524;-84
2023/01/15 02:20:22;;;;;;;0.10;0.10;;;;;;;5.32;92.85;99377.09;9899791;29;20536;-84
2023/01/15 02:25:53;;;;;;;0.10;0.10;;;;;;;5.33;92.84;99370.22;9912881;29;20088;-84
2023/01/15 02:31:15;;;;;;;1.08;1.00;;;;;;;5.29;92.55;99368.41;9894279;29;20596;-84
2023/01/15 02:36:21;;;;;;;0.10;0.10;;;;;;;5.31;92.62;99377.09;9916793;29;20063;-84
2023/01/15 02:41:28;;;;;;;0.08;0.08;;;;;;;5.32;92.24;99364.13;9904982;29;20085;-85
2023/01/15 02:46:34;;;;;;;0.55;0.20;;;;;;;5.32;92.14;99366.72;9903608;29;20057;-84
2023/01/15 02:51:46;;;;;;;0.40;0.20;;;;;;;5.29;92.06;99353.72;9900017;29;20138;-83
2023/01/15 02:56:52;;;;;;;0.10;0.10;;;;;;;5.32;91.74;99358.09;9905504;29;20070;-84
2023/01/15 03:02:03;;;;;;;0.10;0.10;;;;;;;5.28;91.73;99351.09;9921565;29;20059;-83
2023/01/15 03:07:17;;;;;;;0.08;0.08;;;;;;;5.29;91.58;99342.47;9906456;29;20082;-83
2023/01/15 03:13:02;;;;;;;0.32;0.30;;;;;;;5.31;91.23;99332.97;9904600;29;20055;-83
2023/01/15 03:18:21;;;;;;;0.10;0.10;;;;;;;5.26;91.07;99326.84;9914440;29;20401;-83
2023/01/15 03:23:26;;;;;;;0.47;0.30;;;;;;;5.23;90.81;99326.81;9899903;29;20047;-83
2023/01/15 03:28:32;;;;;;;0.10;0.10;;;;;;;5.24;90.66;99333.72;9909506;29;20280;-84
2023/01/15 03:33:35;;;;;;;0.15;0.15;;;;;;;5.27;90.56;99334.66;9914979;29;20136;-83
2023/01/15 03:38:39;;;;;;;0.00;0.00;;;;;;;5.25;90.28;99330.28;9894417;29;20055;-84
2023/01/15 03:44:07;;;;;;;0.03;0.03;;;;;;;5.23;89.82;99321.59;9897740;29;20046;-84
2023/01/15 03:49:20;;;;;;;1.95;1.27;;;;;;;5.25;89.78;99332.88;9927012;29;20058;-83
2023/01/15 03:55:03;;;;;;;2.53;1.13;;;;;;;5.28;89.59;99314.75;9899495;29;20101;-83
2023/01/15 04:00:15;;;;;;;0.10;0.10;;;;;;;5.37;89.28;99311.44;9911912;29;20097;-85
2023/01/15 04:05:17;;;;;;;1.52;0.47;;;;;;;5.30;89.20;99292.31;9905401;29;20059;-84
2023/01/15 04:10:21;;;;;;;0.10;0.10;;;;;;;5.28;89.08;99310.47;9933325;29;20066;-83
2023/01/15 04:15:24;;;;;;;0.10;0.10;;;;;;;5.29;88.98;99308.72;9896884;29;20105;-84
2023/01/15 04:20:26;;;;;;;0.50;0.50;;;;;;;5.26;89.04;99316.47;9912047;29;20115;-83
2023/01/15 04:25:28;;;;;;;8.88;1.55;;;;;;;5.34;88.82;99312.25;9912125;29;20055;-84
2023/01/15 04:30:30;;;;;;;0.10;0.10;;;;;;;5.33;88.37;99294.94;9924503;29;20063;-83
2023/01/15 04:35:31;;;;;;;6.32;1.38;;;;;;;5.34;88.42;99299.25;9906866;29;20059;-83
2023/01/15 04:45:53;;;;;;;0.00;0.00;;;;;;;5.23;87.85;99290.47;9896429;29;20054;-84
2023/01/15 04:50:55;;;;;;;0.20;0.20;;;;;;;5.16;88.11;99278.25;9910784;29;20066;-84
2023/01/15 04:56:01;;;;;;;0.10;0.10;;;;;;;5.13;87.94;99284.25;9906313;29;20064;-84
2023/01/15 05:01:10;;;;;;;2.92;0.63;;;;;;;5.10;87.99;99272.13;9911702;29;20083;-84
2023/01/15 05:06:13;;;;;;;0.10;0.10;;;;;;;5.07;87.51;99274.66;9906104;29;20381;-84
2023/01/15 05:11:14;;;;;;;1.23;0.40;;;;;;;5.16;87.65;99268.72;9914266;29;20069;-84
2023/01/15 05:16:23;;;;;;;0.20;0.20;;;;;;;5.19;87.39;99267.91;9917913;29;20067;-83
2023/01/15 05:21:31;;;;;;;0.20;0.20;;;;;;;5.14;87.33;99268.72;9895032;29;20598;-85
2023/01/15 05:26:33;;;;;;;0.00;0.00;;;;;;;5.19;87.23;99270.50;9913242;29;20551;-83
2023/01/15 05:31:35;;;;;;;1.85;0.52;;;;;;;5.16;87.14;99273.06;9905571;29;20082;-83
2023/01/15 05:36:36;;;;;;;2.47;1.30;;;;;;;5.12;87.13;99267.81;9909891;29;20057;-85
2023/01/15 05:41:50;;;;;;;0.00;0.00;;;;;;;5.09;87.13;99272.97;9906560;29;20090;-83
2023/01/15 05:46:57;;;;;;;0.65;0.55;;;;;;;5.13;86.77;99281.66;9917300;29;20131;-85
2023/01/15 05:52:00;;;;;;;1.13;0.40;;;;;;;5.09;86.54;99278.16;9898713;29;20415;-84
2023/01/15 05:57:02;;;;;;;0.20;0.20;;;;;;;5.04;86.48;99281.53;9910890;29;20140;-83
2023/01/15 06:02:04;;;;;;;1.55;1.45;;;;;;;5.05;86.44;99297.13;9901993;29;20412;-84
2023/01/15 06:07:05;;;;;;;0.10;0.10;;;;;;;5.09;86.23;99280.75;9919222;29;20078;-84
2023/01/15 06:12:07;;;;;;;0.00;0.00;;;;;;;5.06;86.05;99288.50;9918749;29;20047;-85
2023/01/15 06:17:08;;;;;;;99.85;92.60;;;;;;;4.99;86.06;99284.06;9910953;29;20070;-84
2023/01/15 06:22:10;;;;;;;0.17;0.17;;;;;;;5.01;85.75;99284.06;9915137;29;20268;-83
2023/01/15 06:27:11;;;;;;;1.20;1.13;;;;;;;5.00;85.86;99282.31;9917390;29;20063;-84
2023/01/15 06:32:13;;;;;;;0.65;0.65;;;;;;;4.93;85.51;99277.03;9909671;29;20079;-84
2023/01/15 06:37:15;;;;;;;0.20;0.20;;;;;;;4.92;85.19;99280.50;9910186;29;20455;-83
2023/01/15 06:47:37;;;;;;;0.10;0.10;;;;;;;4.76;85.05;99286.28;9920571;29;20139;-84
2023/01/15 06:52:38;;;;;;;0.68;0.68;;;;;;;4.60;85.41;99285.16;9929101;29;20051;-84
2023/01/15 06:57:40;;;;;;;160.75;140.32;;;;;;;4.52;85.43;99273.75;9914546;29;20505;-84
2023/01/15 07:02:41;;;;;;;0.10;0.10;;;;;;;4.57;85.11;99267.81;9920039;29;20495;-84
2023/01/15 07:07:43;;;;;;;0.20;0.20;;;;;;;4.53;85.17;99275.50;9901083;29;20065;-84
2023/01/15 07:12:44;;;;;;;0.10;0.10;;;;;;;4.46;85.16;99278.84;9932882;29;20622;-83
2023/01/15 07:17:46;;;;;;;0.20;0.20;;;;;;;4.37;85.16;99267.47;9914938;29;20075;-84
2023/01/15 07:22:51;;;;;;;0.10;0.10;;;;;;;4.32;85.12;99263.91;9895802;29;20534;-84
2023/01/15 07:27:53;;;;;;;4.30;1.83;;;;;;;4.33;85.74;99273.44;9918440;29;20288;-82
2023/01/15 07:32:55;;;;;;;542.10;215.70;;;;;;;4.35;85.47;99270.88;9925619;29;20518;-82
2023/01/15 07:37:57;;;;;;;137.65;99.65;;;;;;;4.35;85.45;99251.00;9918649;29;20055;-84
2023/01/15 07:53:40;;;;;;;0.17;0.17;;;;;;;4.42;85.42;99262.38;9922031;29;20054;-83
2023/01/15 07:58:47;;;;;;;1.52;0.77;;;;;;;4.42;85.27;99262.38;9905698;29;20407;-83
2023/01/15 08:03:49;;;;;;;0.10;0.10;;;;;;;4.41;85.10;99268.41;9922387;29;20145;-84
2023/01/15 08:08:51;;;;;;;0.10;0.10;;;;;;;4.35;84.85;99256.19;9922244;29;20051;-83
2023/01/15 08:19:12;;;;;;;6.03;1.33;;;;;;;4.33;84.02;99251.84;9914133;29;20059;-84
2023/01/15 08:24:14;;;;;;;0.10;0.10;;;;;;;4.29;83.77;99253.50;9905791;29;20061;-84
2023/01/15 08:29:15;;;;;;;0.10;0.10;;;;;;;4.24;83.40;99262.91;9912483;29;20051;-83
2023/01/15 08:34:18;;;;;;;2.47;0.63;;;;;;;4.17;83.19;99261.91;9911434;29;20084;-83
2023/01/15 08:39:19;;;;;;;0.25;0.25;;;;;;;4.18;83.35;99261.09;9931916;29;20812;-83
2023/01/15 08:44:22;;;;;;;0.10;0.10;;;;;;;4.28;83.06;99275.09;9898210;29;20433;-83
2023/01/15 08:49:24;;;;;;;0.10;0.10;;;;;;;4.39;82.61;99258.00;9901154;29;20139;-85
2023/01/15 08:54:25;;;;;;;0.03;0.03;;;;;;;4.41;82.85;99265.81;9913829;29;20056;-85
2023/01/15 08:59:27;;;;;;;0.35;0.32;;;;;;;4.36;82.82;99273.50;9912838;29;20059;-83
2023/01/15 09:04:29;;;;;;;1.30;0.63;;;;;;;4.43;83.11;99267.59;9920858;29;20046;-83
2023/01/15 09:09:32;;;;;;;0.52;0.32;;;;;;;4.51;83.26;99272.03;9912144;29;20051;-82
2023/01/15 09:14:33;;;;;;;6.82;0.40;;;;;;;4.58;83.15;99268.72;9922161;29;20364;-83
2023/01/15 09:19:55;;;;;;;0.55;0.43;;;;;;;4.62;82.87;99280.84;9895470;29;20536;-84
2023/01/15 09:24:58;;;;;;;1.15;1.05;;;;;;;4.69;82.75;99271.47;9911252;29;20059;-86
2023/01/15 09:30:01;;;;;;;0.60;0.17;;;;;;;4.81;82.38;99274.25;9915731;29;20062;-87
2023/01/15 09:35:02;;;;;;;0.60;0.40;;;;;;;4.89;81.67;99269.19;9921225;29;20316;-86
2023/01/15 09:40:08;;;;;;;0.10;0.10;;;;;;;4.85;81.07;99280.34;9929770;29;20465;-88
2023/01/15 09:45:22;;;;;;;7.13;3.17;;;;;;;4.90;80.48;99274.41;9932588;29;20050;-89
2023/01/15 09:50:38;;;;;;;0.10;0.10;;;;;;;4.95;79.90;99269.28;9915056;29;20073;-89
2023/01/15 09:55:49;;;;;;;0.10;0.10;;;;;;;5.13;79.55;99285.16;9911874;29;20532;-87
2023/01/15 10:00:54;;;;;;;0.10;0.10;;;;;;;5.20;79.45;99286.09;9914415;29;20290;-89
2023/01/15 10:06:18;;;;;;;0.10;0.10;;;;;;;5.27;78.68;99284.47;9908946;29;20059;-86
2023/01/15 10:12:34;;;;;;;0.10;0.10;;;;;;;5.34;78.51;99283.69;9919490;29;20090;-85
2023/01/15 10:16:49;;;;;;;6.40;0.30;;;;;;;5.05;78.80;99294.53;9927894;29;20066;-84
2023/01/15 10:22:09;;;;;;;154.70;136.88;;;;;;;4.28;80.12;99326.91;9927105;29;20141;-90
2023/01/15 10:27:32;;;;;;;58.78;54.38;;;;;;;3.28;82.81;99335.16;9941069;29;20065;-89
2023/01/15 10:32:57;;;;;;;8.15;4.97;;;;;;;3.03;85.06;99305.25;9895152;29;20543;-86
2023/01/15 10:38:29;;;;;;;18.17;10.70;;;;;;;2.40;86.42;99333.88;9918147;29;20051;-87
2023/01/15 10:44:06;;;;;;;16.98;8.07;;;;;;;2.11;87.52;99287.47;9964560;24;20077;-91
2023/01/15 10:49:28;;;;;;;17.92;9.25;;;;;;;2.13;88.41;99287.50;9977073;29;20050;-86
2023/01/15 11:23:46;;;;;;;0.10;0.10;;;;;;;2.94;91.42;99272.28;9902238;29;20386;-89
2023/01/15 11:35:51;;;;;;;6.18;0.52;;;;;;;3.08;91.94;99265.75;9890872;29;20500;-87
2023/01/15 11:40:58;;;;;;;0.13;0.13;;;;;;;3.21;91.75;99247.91;9897929;29;20085;-86
2023/01/15 13:11:17;;;;;;;0.35;0.35;;;;;;;4.91;87.06;99163.75;9989748;24;20485;-85
2023/01/15 13:16:36;;;;;;;0.47;0.35;;;;;;;5.00;86.55;99169.06;9949004;29;20466;-86
2023/01/15 13:21:42;;;;;;;0.10;0.10;;;;;;;5.03;85.57;99153.53;9957405;29;20054;-85
2023/01/15 13:26:56;;;;;;;0.30;0.25;;;;;;;5.16;85.06;99164.06;9986480;29;20070;-82
2023/01/15 13:32:05;;;;;;;1.02;0.43;;;;;;;5.35;84.05;99160.84;9988318;29;20066;-82
2023/01/15 13:37:17;;;;;;;0.10;0.10;;;;;;;5.42;83.31;99161.78;9989157;29;20422;-83
2023/01/15 13:42:35;;;;;;;0.80;0.68;;;;;;;5.46;82.71;99185.22;9996411;29;20086;-83
2023/01/15 13:47:38;;;;;;;1.08;0.68;;;;;;;5.45;82.36;99190.38;9990337;29;20057;-82
2023/01/15 13:52:40;;;;;;;0.85;0.52;;;;;;;5.48;82.33;99183.50;9992159;29;20048;-80
2023/01/15 13:57:42;;;;;;;0.55;0.30;;;;;;;5.51;81.98;99236.31;9982890;29;20050;-82
2023/01/15 14:02:52;;;;;;;0.20;0.20;;;;;;;5.48;81.93;99209.47;9977973;29;20427;-86
2023/01/15 14:07:54;;;;;;;0.17;0.17;;;;;;;5.46;81.98;99202.50;9972271;29;20089;-81
2023/01/15 14:13:30;;;;;;;0.10;0.10;;;;;;;5.45;82.01;99221.53;9974036;29;20065;-81
2023/01/15 14:18:50;;;;;;;0.00;0.00;;;;;;;5.41;82.41;99211.97;9977219;29;20523;-80
2023/01/15 14:23:54;;;;;;;6.00;0.43;;;;;;;5.33;82.46;99217.06;9978844;29;20059;-86
2023/01/15 14:29:01;;;;;;;0.20;0.20;;;;;;;5.07;83.28;99248.69;9975807;29;20806;-84
2023/01/15 14:34:11;;;;;;;0.28;0.28;;;;;;;4.83;84.55;99241.44;9987002;29;20081;-80
2023/01/15 14:39:28;;;;;;;0.13;0.10;;;;;;;4.64;85.31;99250.66;9995319;29;20045;-79
2023/01/15 14:44:32;;;;;;;0.15;0.15;;;;;;;4.68;85.82;99259.34;10008399;29;20338;-81
2023/01/15 14:49:48;;;;;;;9.02;0.38;;;;;;;4.80;86.22;99258.69;9993688;29;20617;-78
2023/01/15 14:54:52;;;;;;;0.55;0.40;;;;;;;4.83;85.89;99261.31;9991273;29;20141;-80
2023/01/15 14:59:59;;;;;;;0.63;0.50;;;;;;;4.83;86.03;99267.38;9994160;29;20433;-79
2023/01/15 15:05:02;;;;;;;0.20;0.20;;;;;;;4.86;85.98;99269.13;9992158;29;20118;-79
2023/01/15 15:10:12;;;;;;;0.00;0.00;;;;;;;4.94;85.96;99277.94;9990547;29;20068;-80
2023/01/15 15:15:18;;;;;;;0.25;0.25;;;;;;;4.85;85.98;99321.84;9970365;29;20159;-79
2023/01/15 15:20:38;;;;;;;0.30;0.30;;;;;;;4.04;86.45;99377.41;9991013;29;20046;-78
2023/01/15 15:25:41;;;;;;;2.33;0.98;;;;;;;2.53;86.98;99391.03;9984980;29;20093;-79
2023/01/15 15:30:45;;;;;;;10.18;4.95;;;;;;;2.06;88.16;99378.56;9980670;29;20054;-84
2023/01/15 15:35:58;;;;;;;0.10;0.10;;;;;;;2.14;89.49;99389.97;9977895;29;20153;-85
2023/01/15 15:41:09;;;;;;;0.10;0.10;;;;;;;2.36;90.53;99388.88;9980819;29;20436;-83
2023/01/15 15:51:51;;;;;;;4.30;3.42;;;;;;;2.91;92.09;99384.31;9980436;29;20078;-83
2023/01/15 15:57:16;;;;;;;0.10;0.10;;;;;;;3.09;92.94;99388.16;9975587;29;20086;-83
2023/01/15 16:02:40;;;;;;;0.10;0.10;;;;;;;3.31;93.43;99400.78;9977112;29;20119;-82
2023/01/15 16:07:41;;;;;;;0.85;0.68;;;;;;;3.42;93.78;99413.97;9977918;29;20500;-82
2023/01/15 16:12:51;;;;;;;0.10;0.10;;;;;;;3.56;94.23;99409.16;9979622;29;20400;-78
2023/01/15 16:17:54;;;;;;;;;;;;;;;3.63;94.19;99410.16;9977167;29;20063;-78
2023/01/15 16:22:59;;;;;;;0.10;0.10;;;;;;;3.65;94.05;99411.94;9983584;29;19932;-77
2023/01/15 16:28:01;;;;;;;0.10;0.10;;;;;;;3.68;94.29;99424.09;9973076;29;20065;-78
2023/01/15 16:33:07;;;;;;;2.72;0.63;;;;;;;3.66;94.22;99416.28;9977981;29;20058;-78
2023/01/15 16:38:18;;;;;;;0.25;0.25;;;;;;;3.71;94.28;99431.94;9992184;29;20054;-79
2023/01/15 16:43:23;;;;;;;0.10;0.10;;;;;;;3.73;94.29;99419.88;9986759;29;20290;-78
2023/01/15 16:48:44;;;;;;;0.10;0.10;;;;;;;3.75;94.46;99432.84;9986348;29;20054;-80
2023/01/15 16:53:46;;;;;;;0.00;0.00;;;;;;;3.76;94.40;99447.56;9987611;29;20106;-77
2023/01/15 16:58:48;;;;;;;0.38;0.38;;;;;;;3.76;94.72;99445.84;9977525;29;20515;-78
2023/01/15 17:03:52;;;;;;;0.45;0.20;;;;;;;3.72;94.40;99449.19;9974410;29;20512;-78
2023/01/15 17:08:54;;;;;;;0.10;0.10;;;;;;;3.70;94.38;99451.75;9975511;29;20546;-80
2023/01/15 17:14:06;;;;;;;0.10;0.10;;;;;;;3.69;94.43;99464.66;9988218;29;20127;-79
2023/01/15 17:19:09;;;;;;;0.10;0.10;;;;;;;3.67;94.52;99474.09;9989442;29;20140;-79
2023/01/15 17:24:12;;;;;;;0.10;0.10;;;;;;;3.64;94.68;99487.84;9988886;29;20337;-80
2023/01/15 17:29:13;;;;;;;0.22;0.22;;;;;;;3.64;94.59;99493.03;9983342;29;20665;-81
2023/01/15 17:34:22;;;;;;;0.10;0.10;;;;;;;3.65;94.50;99481.84;9985384;29;20050;-80
2023/01/15 17:39:23;;;;;;;0.10;0.10;;;;;;;3.66;95.02;99490.47;9985719;29;20439;-79
2023/01/15 17:44:25;;;;;;;0.40;0.40;;;;;;;3.68;94.82;99494.00;9985430;29;20051;-80
2023/01/15 17:49:27;;;;;;;0.10;0.10;;;;;;;3.67;95.17;99503.44;9988461;29;20114;-80
2023/01/15 18:05:24;;;;;;;0.03;0.03;;;;;;;3.76;95.27;99538.19;9996162;29;20085;-80
2023/01/15 18:10:26;;;;;;;0.40;0.40;;;;;;;3.75;95.26;99541.59;9998076;29;20077;-80
2023/01/15 18:15:28;;;;;;;0.25;0.25;;;;;;;3.79;95.53;99525.31;9995176;29;20114;-80
2023/01/15 18:20:30;;;;;;;0.22;0.22;;;;;;;3.83;95.35;99532.31;9998926;29;20110;-80
2023/01/15 18:25:33;;;;;;;0.10;0.10;;;;;;;3.86;95.36;99535.84;10001028;29;20118;-80
2023/01/15 18:30:35;;;;;;;0.03;0.03;;;;;;;3.90;95.26;99539.38;10000763;29;20066;-80
2023/01/15 18:35:36;;;;;;;0.28;0.20;;;;;;;3.91;95.20;99551.50;10000394;29;20115;-81
2023/01/15 18:40:38;;;;;;;0.10;0.10;;;;;;;3.91;94.75;99564.44;9998678;29;20113;-81
2023/01/15 18:51:09;;;;;;;0.90;0.75;;;;;;;3.89;94.88;99571.31;9992152;29;20084;-81
2023/01/15 18:56:10;;;;;;;0.30;0.30;;;;;;;3.93;94.67;99580.88;9997291;29;20055;-81
2023/01/15 19:01:12;;;;;;;0.10;0.10;;;;;;;3.95;94.62;99581.81;9989981;29;20062;-82
2023/01/15 19:06:14;;;;;;;0.57;0.52;;;;;;;3.97;94.66;99585.31;9993855;29;20114;-81
2023/01/15 19:11:15;;;;;;;0.10;0.10;;;;;;;3.97;94.25;99577.53;9991831;29;20065;-82
2023/01/15 19:21:37;;;;;;;0.52;0.47;;;;;;;3.96;93.97;99582.69;9986812;29;20089;-82
2023/01/15 19:26:39;;;;;;;0.05;0.05;;;;;;;3.96;94.14;99583.56;9990398;29;20054;-83
2023/01/15 19:31:40;;;;;;;0.28;0.28;;;;;;;3.97;93.98;99585.31;9992148;29;20113;-83
2023/01/15 19:36:42;;;;;;;0.10;0.10;;;;;;;3.98;93.95;99589.66;9991248;29;20060;-84
2023/01/15 19:52:33;;;;;;;0.10;0.10;;;;;;;3.95;93.66;99609.41;9974884;29;20478;-84
2023/01/15 19:57:38;;;;;;;0.25;0.25;;;;;;;3.95;93.56;99612.91;9989732;29;20074;-83
2023/01/15 20:02:40;;;;;;;0.10;0.10;;;;;;;3.92;93.32;99612.81;9973305;29;20511;-84
2023/01/15 20:07:42;;;;;;;0.38;0.30;;;;;;;3.88;93.41;99622.22;9970990;29;20217;-84
2023/01/15 20:18:17;;;;;;;0.30;0.30;;;;;;;3.80;93.61;99612.50;9966154;29;20137;-84
2023/01/15 21:17:55;;;;;;;0.17;0.17;;;;;;;3.51;92.73;99610.03;10289208;24;20491;-88
2023/01/15 21:22:58;;;;;;;0.75;0.57;;;;;;;3.45;93.10;99617.63;9911203;29;20047;-84
2023/01/15 21:28:00;;;;;;;0.10;0.10;;;;;;;3.38;93.46;99616.59;9949972;29;20437;-83
2023/01/15 21:33:02;;;;;;;0.10;0.10;;;;;;;3.35;93.93;99606.16;9955908;29;20058;-83
2023/01/15 21:38:03;;;;;;;0.10;0.10;;;;;;;3.32;94.07;99599.19;9955519;29;20089;-83
2023/01/15 21:48:25;;;;;;;0.75;0.75;;;;;;;3.36;94.93;99589.78;9948998;29;20057;-83
2023/01/15 21:53:27;;;;;;;0.52;0.52;;;;;;;3.36;95.00;99589.78;9953749;29;20495;-84
2023/01/15 21:58:28;;;;;;;78.72;72.32;;;;;;;3.38;95.09;99582.06;9952159;29;20420;-84
2023/01/15 22:03:30;;;;;;;0.30;0.30;;;;;;;3.46;95.37;99598.69;9952932;29;20146;-84
2023/01/15 22:08:32;;;;;;;0.40;0.40;;;;;;;3.52;95.51;99596.25;9949091;29;20074;-83
2023/01/15 22:13:35;;;;;;;13.45;5.72;;;;;;;3.59;95.61;99598.19;9944870;29;20050;-84
2023/01/15 22:18:37;;;;;;;5.13;1.38;;;;;;;3.64;95.45;99599.16;9942647;29;20108;-84
2023/01/15 22:23:38;;;;;;;0.95;0.55;;;;;;;3.66;95.62;99586.25;9938084;29;20088;-85
2023/01/15 22:28:40;;;;;;;0.52;0.30;;;;;;;3.70;95.53;99586.38;9938067;29;20046;-84
2023/01/15 22:33:42;;;;;;;36.78;29.15;;;;;;;3.72;95.29;99581.22;9935213;29;20050;-85
2023/01/15 22:38:45;;;;;;;1.00;0.40;;;;;;;3.78;95.22;99580.53;9931952;29;20055;-85
2023/01/15 22:43:47;;;;;;;1.10;0.68;;;;;;;3.76;95.37;99571.84;9931049;29;20166;-85
2023/01/15 22:48:49;;;;;;;14.25;4.55;;;;;;;3.78;94.98;99562.41;9930499;29;20142;-85
2023/01/15 22:53:55;;;;;;;18.80;10.60;;;;;;;3.76;94.78;99548.53;9943751;29;20592;-85
2023/01/15 22:58:58;;;;;;;0.20;0.20;;;;;;;3.75;94.36;99558.00;9929569;29;20059;-86
2023/01/15 23:04:00;;;;;;;0.28;0.20;;;;;;;3.78;94.28;99539.09;9930239;29;20051;-86
2023/01/15 23:09:09;;;;;;;0.50;0.50;;;;;;;3.78;94.02;99546.84;9933411;29;20149;-86
2023/01/15 23:14:14;;;;;;;15.55;9.98;;;;;;;3.75;93.85;99544.19;9930850;29;20588;-86
2023/01/15 23:19:20;;;;;;;0.17;0.17;;;;;;;3.76;93.69;99539.06;9945936;29;20061;-86
2023/01/15 23:24:30;;;;;;;4.03;1.98;;;;;;;3.77;93.37;99529.56;9934661;29;20583;-87
2023/01/15 23:30:09;;;;;;;5.40;2.38;;;;;;;3.78;93.14;99526.13;9942168;29;20274;-88
2023/01/15 23:35:22;;;;;;;3.88;1.70;;;;;;;3.69;92.88;99514.75;9930021;29;20355;-86
2023/01/15 23:40:26;;;;;;;0.10;0.10;;;;;;;3.64;92.72;99505.09;9934314;29;20054;-86
2023/01/15 23:50:55;;;;;;;0.40;0.40;;;;;;;3.42;92.59;99506.28;9928088;29;20067;-87
2023/01/15 23:56:49;;;;;;;0.35;0.30;;;;;;;3.40;92.59;99497.59;9942075;29;20071;-87
